Terminal Aerodrome Forecast
Issued by NWS Cleveland, OH

Home | Current Version | Previous Version | Text Only | Print | Product List | Glossary On
Versions: 1 2 3 4 5 6 7 8 9 10 11 12 13
000
FTUS41 KCLE 231746
TAFERI
TAF
KERI 231746Z 2318/2418 16015G25KT P6SM VCSH SCT050 BKN080
     FM232100 14020G30KT P6SM -SHRA BKN035 OVC060
      TEMPO 2321/2401 15025G35KT
     FM240100 17022G30KT 6SM -RA OVC035
     FM240900 21012G22KT P6SM OVC025
     FM241600 18015G25KT P6SM OVC035=

USA.gov is the U.S. government's official web portal to all federal, state and local government web resources and services.